BKPR

Priština International Airport

Prishtina, Kosovo
METAR BKPR 170000Z VRB02KT 9999 BKN080 19/16 Q1012 NOSIG
Observed Flight Rules
Jul-17 @ 00:00 UTC (16 minutes ago) Visual Flight Rules
Wind Visibility Clouds
Variable at 2 knots 10,000+ meters
  • Broken at 8,000' AGL
Temperatures Readings
Current 19°C / 66°F
Dewpoint 16°C / 61°F
Humidity 83%
Altimeter 29.88" Hg
Pressure 1012 hPa
Elevation 576
METAR BKPR 170000Z VRB02KT 9999 BKN080 19/16 Q1012 NOSIG
Observed Flight Rules
Jul-17 @ 00:00 UTC
(16 minutes ago)
VFR
Wind Visibility
Variable at 2 knots 10,000+ meters
Clouds
  • Broken at 8,000' AGL
Temperature Dewpoint
19°C / 66°F 16°C / 61°F
Humidity Altimeter Pressure
83% 29.88" Hg 1012 hPa